This is the latest recevied weather packets stored in our database for station/object OK1VCF-5. If no packets are shown the sender has not sent any weather packets the latest 10 day(s).
| Time | Temp. | Humidity | Pressure | Rain* | Wind** | Luminosity | Snow |
|---|---|---|---|---|---|---|---|
| 1777679727 | 5° C | 84% | 1031.1 hPa | - | - | - | - |
| 1777677927 | 5.56° C | 82% | 1031 hPa | - | - | - | - |
| 1777677026 | 5.56° C | 81% | 1031 hPa | - | - | - | - |
| 1777676125 | 6.11° C | 80% | 1031 hPa | - | - | - | - |
| 1777675224 | 6.67° C | 80% | 1031.2 hPa | - | - | - | - |
| 1777675223 | 6.67° C | 80% | 1031.2 hPa | - | - | - | - |
| 1777674325 | 6.67° C | 80% | 1031 hPa | - | - | - | - |
| 1777673423 | 6.67° C | 80% | 1031.2 hPa | - | - | - | - |
| 1777672524 | 6.67° C | 79% | 1031.1 hPa | - | - | - | - |
| 1777671623 | 6.67° C | 78% | 1031 hPa | - | - | - | - |
| 1777670724 | 6.67° C | 78% | 1031 hPa | - | - | - | - |
| 1777667121 | 8.89° C | 72% | 1031 hPa | - | - | - | - |
| 1777666215 | 8.89° C | 69% | 1030.8 hPa | - | - | - | - |
| 1777665315 | 10° C | 67% | 1030.8 hPa | - | - | - | - |
| 1777663514 | 11.11° C | 60% | 1030.6 hPa | - | - | - | - |
| 1777662613 | 11.67° C | 57% | 1030.5 hPa | - | - | - | - |
| 1777660812 | 12.78° C | 54% | 1030.2 hPa | - | - | - | - |
| 1777659912 | 13.33° C | 50% | 1030 hPa | - | - | - | - |
| 1777659009 | 14.44° C | 48% | 1029.8 hPa | - | - | - | - |
| 1777658114 | 15.56° C | 46% | 1029.7 hPa | - | - | - | - |
| 1777657210 | 16.11° C | 48% | 1029.6 hPa | - | - | - | - |
| 1777655407 | 18.33° C | 40% | 1029.5 hPa | - | - | - | - |
| 1777652707 | 20° C | 32% | 1029.6 hPa | - | - | - | - |
| 1777651803 | 20.56° C | 32% | 1029.7 hPa | - | - | - | - |
| 1777650904 | 20.56° C | 29% | 1029.8 hPa | - | - | - | - |
* Rain since midnight (hover to see other rain measurements)
** Current wind speed in m/s (hover to see current wind gust speed)